sensor_id;sensor_type;location;lat;lon;timestamp;temperature;humidity
6841;DHT22;3458;53.678;14.080;2023-07-20T00:00:05;17.70;99.90
6841;DHT22;3458;53.678;14.080;2023-07-20T00:02:31;17.70;99.90
6841;DHT22;3458;53.678;14.080;2023-07-20T00:04:57;17.70;99.90
6841;DHT22;3458;53.678;14.080;2023-07-20T00:07:22;17.70;99.90
6841;DHT22;3458;53.678;14.080;2023-07-20T00:09:48;17.70;99.90
6841;DHT22;3458;53.678;14.080;2023-07-20T00:12:13;17.60;99.90
6841;DHT22;3458;53.678;14.080;2023-07-20T00:14:39;17.60;99.90
6841;DHT22;3458;53.678;14.080;2023-07-20T00:17:05;17.50;99.90
6841;DHT22;3458;53.678;14.080;2023-07-20T00:19:30;17.50;99.90
6841;DHT22;3458;53.678;14.080;2023-07-20T00:21:57;17.50;99.90
6841;DHT22;3458;53.678;14.080;2023-07-20T00:24:23;17.50;99.90
6841;DHT22;3458;53.678;14.080;2023-07-20T00:26:48;17.40;99.90
6841;DHT22;3458;53.678;14.080;2023-07-20T00:29:14;17.40;99.90
6841;DHT22;3458;53.678;14.080;2023-07-20T00:31:39;17.40;99.90
6841;DHT22;3458;53.678;14.080;2023-07-20T00:34:05;17.50;99.90
6841;DHT22;3458;53.678;14.080;2023-07-20T00:36:31;17.50;99.90
6841;DHT22;3458;53.678;14.080;2023-07-20T00:38:57;17.50;99.90
6841;DHT22;3458;53.678;14.080;2023-07-20T00:41:22;17.40;99.90
6841;DHT22;3458;53.678;14.080;2023-07-20T00:43:48;17.30;99.90
6841;DHT22;3458;53.678;14.080;2023-07-20T00:46:14;17.30;99.90
6841;DHT22;3458;53.678;14.080;2023-07-20T00:48:40;17.30;99.90
6841;DHT22;3458;53.678;14.080;2023-07-20T00:51:06;17.30;99.90
6841;DHT22;3458;53.678;14.080;2023-07-20T00:53:31;17.30;99.90
6841;DHT22;3458;53.678;14.080;2023-07-20T00:55:57;17.30;99.90
6841;DHT22;3458;53.678;14.080;2023-07-20T00:58:23;17.30;99.90
6841;DHT22;3458;53.678;14.080;2023-07-20T01:00:49;17.30;99.90
6841;DHT22;3458;53.678;14.080;2023-07-20T01:03:15;17.30;99.90
6841;DHT22;3458;53.678;14.080;2023-07-20T01:05:48;17.30;99.90
6841;DHT22;3458;53.678;14.080;2023-07-20T01:08:29;17.20;99.90
6841;DHT22;3458;53.678;14.080;2023-07-20T01:11:10;17.10;99.90
6841;DHT22;3458;53.678;14.080;2023-07-20T01:13:37;17.20;99.90
6841;DHT22;3458;53.678;14.080;2023-07-20T01:16:04;17.20;99.90
6841;DHT22;3458;53.678;14.080;2023-07-20T01:18:29;17.10;99.90
6841;DHT22;3458;53.678;14.080;2023-07-20T01:20:59;17.10;99.90
6841;DHT22;3458;53.678;14.080;2023-07-20T01:26:24;16.90;99.90
6841;DHT22;3458;53.678;14.080;2023-07-20T01:31:39;16.90;99.90
6841;DHT22;3458;53.678;14.080;2023-07-20T01:34:08;16.80;99.90
6841;DHT22;3458;53.678;14.080;2023-07-20T01:36:37;16.80;99.90
6841;DHT22;3458;53.678;14.080;2023-07-20T01:39:03;16.80;99.90
6841;DHT22;3458;53.678;14.080;2023-07-20T01:41:30;16.80;99.90
6841;DHT22;3458;53.678;14.080;2023-07-20T01:43:58;16.80;99.90
6841;DHT22;3458;53.678;14.080;2023-07-20T01:46:27;16.70;99.90
6841;DHT22;3458;53.678;14.080;2023-07-20T01:48:53;16.70;99.90
6841;DHT22;3458;53.678;14.080;2023-07-20T01:51:19;16.70;99.90
6841;DHT22;3458;53.678;14.080;2023-07-20T01:53:45;16.80;99.90
6841;DHT22;3458;53.678;14.080;2023-07-20T01:56:10;16.80;99.90
6841;DHT22;3458;53.678;14.080;2023-07-20T01:58:37;16.80;99.90
6841;DHT22;3458;53.678;14.080;2023-07-20T02:01:03;16.90;99.90
6841;DHT22;3458;53.678;14.080;2023-07-20T02:03:28;16.90;99.90
6841;DHT22;3458;53.678;14.080;2023-07-20T02:05:54;16.90;99.90
6841;DHT22;3458;53.678;14.080;2023-07-20T02:08:19;16.80;99.90
6841;DHT22;3458;53.678;14.080;2023-07-20T02:10:46;16.70;99.90
6841;DHT22;3458;53.678;14.080;2023-07-20T02:13:12;16.60;99.90
6841;DHT22;3458;53.678;14.080;2023-07-20T02:15:38;16.70;99.90
6841;DHT22;3458;53.678;14.080;2023-07-20T02:18:03;16.70;99.90
6841;DHT22;3458;53.678;14.080;2023-07-20T02:20:28;16.70;99.90
6841;DHT22;3458;53.678;14.080;2023-07-20T02:22:54;16.70;99.90
6841;DHT22;3458;53.678;14.080;2023-07-20T02:25:20;16.70;99.90
6841;DHT22;3458;53.678;14.080;2023-07-20T02:27:46;16.70;99.90
6841;DHT22;3458;53.678;14.080;2023-07-20T02:30:11;16.70;99.90
6841;DHT22;3458;53.678;14.080;2023-07-20T02:32:37;16.70;99.90
6841;DHT22;3458;53.678;14.080;2023-07-20T02:35:03;16.70;99.90
6841;DHT22;3458;53.678;14.080;2023-07-20T02:37:29;16.70;99.90
6841;DHT22;3458;53.678;14.080;2023-07-20T02:39:54;16.70;99.90
6841;DHT22;3458;53.678;14.080;2023-07-20T02:42:20;16.70;99.90
6841;DHT22;3458;53.678;14.080;2023-07-20T02:44:48;16.60;99.90
6841;DHT22;3458;53.678;14.080;2023-07-20T02:47:13;16.60;99.90
6841;DHT22;3458;53.678;14.080;2023-07-20T02:49:39;16.70;99.90
6841;DHT22;3458;53.678;14.080;2023-07-20T02:52:04;16.70;99.90
6841;DHT22;3458;53.678;14.080;2023-07-20T02:54:30;16.70;99.90
6841;DHT22;3458;53.678;14.080;2023-07-20T02:56:56;16.60;99.90
6841;DHT22;3458;53.678;14.080;2023-07-20T02:59:22;16.60;99.90
6841;DHT22;3458;53.678;14.080;2023-07-20T03:01:47;16.60;99.90
6841;DHT22;3458;53.678;14.080;2023-07-20T03:04:13;16.60;99.90
6841;DHT22;3458;53.678;14.080;2023-07-20T03:06:38;16.60;99.90
6841;DHT22;3458;53.678;14.080;2023-07-20T03:09:04;16.70;99.90
6841;DHT22;3458;53.678;14.080;2023-07-20T03:11:29;16.70;99.90
6841;DHT22;3458;53.678;14.080;2023-07-20T03:13:55;16.60;99.90
6841;DHT22;3458;53.678;14.080;2023-07-20T03:16:24;16.60;99.90
6841;DHT22;3458;53.678;14.080;2023-07-20T03:18:50;16.60;99.90
6841;DHT22;3458;53.678;14.080;2023-07-20T03:21:16;16.50;99.90
6841;DHT22;3458;53.678;14.080;2023-07-20T03:23:41;16.50;99.90
6841;DHT22;3458;53.678;14.080;2023-07-20T03:26:07;16.40;99.90
6841;DHT22;3458;53.678;14.080;2023-07-20T03:28:36;16.50;99.90
6841;DHT22;3458;53.678;14.080;2023-07-20T03:31:02;16.50;99.90
6841;DHT22;3458;53.678;14.080;2023-07-20T03:33:29;16.40;99.90
6841;DHT22;3458;53.678;14.080;2023-07-20T03:35:55;16.50;99.90
6841;DHT22;3458;53.678;14.080;2023-07-20T03:38:22;16.50;99.90
6841;DHT22;3458;53.678;14.080;2023-07-20T03:40:56;16.50;99.90
6841;DHT22;3458;53.678;14.080;2023-07-20T03:43:22;16.50;99.90
6841;DHT22;3458;53.678;14.080;2023-07-20T03:45:48;16.40;99.90
6841;DHT22;3458;53.678;14.080;2023-07-20T03:48:19;16.40;99.90
6841;DHT22;3458;53.678;14.080;2023-07-20T03:50:46;16.30;99.90
6841;DHT22;3458;53.678;14.080;2023-07-20T03:53:15;16.30;99.90
6841;DHT22;3458;53.678;14.080;2023-07-20T03:55:41;16.30;99.90
6841;DHT22;3458;53.678;14.080;2023-07-20T03:58:07;16.40;99.90
6841;DHT22;3458;53.678;14.080;2023-07-20T04:00:34;16.40;99.90
6841;DHT22;3458;53.678;14.080;2023-07-20T04:02:59;16.40;99.90
6841;DHT22;3458;53.678;14.080;2023-07-20T04:05:25;16.40;99.90
6841;DHT22;3458;53.678;14.080;2023-07-20T04:07:51;16.40;99.90
6841;DHT22;3458;53.678;14.080;2023-07-20T04:10:17;16.40;99.90
6841;DHT22;3458;53.678;14.080;2023-07-20T04:12:43;16.40;99.90
6841;DHT22;3458;53.678;14.080;2023-07-20T04:15:09;16.40;99.90
6841;DHT22;3458;53.678;14.080;2023-07-20T04:17:35;16.40;99.90
6841;DHT22;3458;53.678;14.080;2023-07-20T04:20:00;16.30;99.90
6841;DHT22;3458;53.678;14.080;2023-07-20T04:22:26;16.30;99.90
6841;DHT22;3458;53.678;14.080;2023-07-20T04:24:52;16.30;99.90
6841;DHT22;3458;53.678;14.080;2023-07-20T04:27:17;16.30;99.90
6841;DHT22;3458;53.678;14.080;2023-07-20T04:29:43;16.30;99.90
6841;DHT22;3458;53.678;14.080;2023-07-20T04:32:08;16.20;99.90
6841;DHT22;3458;53.678;14.080;2023-07-20T04:34:34;16.20;99.90
6841;DHT22;3458;53.678;14.080;2023-07-20T04:37:03;16.20;99.90
6841;DHT22;3458;53.678;14.080;2023-07-20T04:39:28;16.30;99.90
6841;DHT22;3458;53.678;14.080;2023-07-20T04:41:54;16.30;99.90
6841;DHT22;3458;53.678;14.080;2023-07-20T04:44:19;16.30;99.90
6841;DHT22;3458;53.678;14.080;2023-07-20T04:46:45;16.20;99.90
6841;DHT22;3458;53.678;14.080;2023-07-20T04:49:11;16.20;99.90
6841;DHT22;3458;53.678;14.080;2023-07-20T04:51:38;16.20;99.90
6841;DHT22;3458;53.678;14.080;2023-07-20T04:54:04;16.30;99.90
6841;DHT22;3458;53.678;14.080;2023-07-20T04:56:29;16.30;99.90
6841;DHT22;3458;53.678;14.080;2023-07-20T04:58:55;16.30;99.90
6841;DHT22;3458;53.678;14.080;2023-07-20T05:01:20;16.40;99.90
6841;DHT22;3458;53.678;14.080;2023-07-20T05:03:46;16.30;99.90
6841;DHT22;3458;53.678;14.080;2023-07-20T05:06:11;16.40;99.90
6841;DHT22;3458;53.678;14.080;2023-07-20T05:08:37;16.40;99.90
6841;DHT22;3458;53.678;14.080;2023-07-20T05:11:04;16.40;99.90
6841;DHT22;3458;53.678;14.080;2023-07-20T05:13:29;16.30;99.90
6841;DHT22;3458;53.678;14.080;2023-07-20T05:15:55;16.30;99.90
6841;DHT22;3458;53.678;14.080;2023-07-20T05:18:20;16.40;99.90
6841;DHT22;3458;53.678;14.080;2023-07-20T05:20:50;16.40;99.90
6841;DHT22;3458;53.678;14.080;2023-07-20T05:23:19;16.30;99.90
6841;DHT22;3458;53.678;14.080;2023-07-20T05:25:54;16.40;99.90
6841;DHT22;3458;53.678;14.080;2023-07-20T05:28:20;16.40;99.90
6841;DHT22;3458;53.678;14.080;2023-07-20T05:30:45;16.50;99.90
6841;DHT22;3458;53.678;14.080;2023-07-20T05:33:11;16.50;99.90
6841;DHT22;3458;53.678;14.080;2023-07-20T05:35:37;16.60;99.90
6841;DHT22;3458;53.678;14.080;2023-07-20T05:38:02;16.60;99.90
6841;DHT22;3458;53.678;14.080;2023-07-20T05:40:30;16.70;99.90
6841;DHT22;3458;53.678;14.080;2023-07-20T05:42:55;16.70;99.90
6841;DHT22;3458;53.678;14.080;2023-07-20T05:45:22;16.80;99.90
6841;DHT22;3458;53.678;14.080;2023-07-20T05:47:48;16.90;99.90
6841;DHT22;3458;53.678;14.080;2023-07-20T05:50:13;16.90;99.90
6841;DHT22;3458;53.678;14.080;2023-07-20T05:52:40;16.90;99.90
6841;DHT22;3458;53.678;14.080;2023-07-20T05:55:06;17.00;99.90
6841;DHT22;3458;53.678;14.080;2023-07-20T05:57:32;17.10;99.90
6841;DHT22;3458;53.678;14.080;2023-07-20T05:59:57;17.20;99.90
6841;DHT22;3458;53.678;14.080;2023-07-20T06:02:23;17.20;99.90
6841;DHT22;3458;53.678;14.080;2023-07-20T06:04:48;17.30;99.90
6841;DHT22;3458;53.678;14.080;2023-07-20T06:07:15;17.30;99.90
6841;DHT22;3458;53.678;14.080;2023-07-20T06:09:40;17.30;99.90
6841;DHT22;3458;53.678;14.080;2023-07-20T06:12:06;17.40;99.90
6841;DHT22;3458;53.678;14.080;2023-07-20T06:14:32;17.40;99.90
6841;DHT22;3458;53.678;14.080;2023-07-20T06:16:57;17.40;99.90
6841;DHT22;3458;53.678;14.080;2023-07-20T06:19:23;17.40;99.90
6841;DHT22;3458;53.678;14.080;2023-07-20T06:21:48;17.40;99.90
6841;DHT22;3458;53.678;14.080;2023-07-20T06:24:15;17.40;99.90
6841;DHT22;3458;53.678;14.080;2023-07-20T06:26:41;17.40;99.90
6841;DHT22;3458;53.678;14.080;2023-07-20T06:29:06;17.40;99.90
6841;DHT22;3458;53.678;14.080;2023-07-20T06:31:33;17.50;99.90
6841;DHT22;3458;53.678;14.080;2023-07-20T06:33:59;17.50;99.90
6841;DHT22;3458;53.678;14.080;2023-07-20T06:36:24;17.50;99.90
6841;DHT22;3458;53.678;14.080;2023-07-20T06:38:51;17.50;99.90
6841;DHT22;3458;53.678;14.080;2023-07-20T06:41:17;17.50;99.90
6841;DHT22;3458;53.678;14.080;2023-07-20T06:43:42;17.50;99.90
6841;DHT22;3458;53.678;14.080;2023-07-20T06:46:08;17.50;99.90
6841;DHT22;3458;53.678;14.080;2023-07-20T06:48:33;17.40;99.90
6841;DHT22;3458;53.678;14.080;2023-07-20T06:50:59;17.40;99.90
6841;DHT22;3458;53.678;14.080;2023-07-20T06:53:24;17.40;99.90
6841;DHT22;3458;53.678;14.080;2023-07-20T06:55:50;17.40;99.90
6841;DHT22;3458;53.678;14.080;2023-07-20T06:58:16;17.40;99.90
6841;DHT22;3458;53.678;14.080;2023-07-20T07:00:41;17.40;99.90
6841;DHT22;3458;53.678;14.080;2023-07-20T07:03:07;17.50;99.90
6841;DHT22;3458;53.678;14.080;2023-07-20T07:05:36;17.50;99.90
6841;DHT22;3458;53.678;14.080;2023-07-20T07:08:05;17.50;99.90
6841;DHT22;3458;53.678;14.080;2023-07-20T07:10:31;17.50;99.90
6841;DHT22;3458;53.678;14.080;2023-07-20T07:12:56;17.50;99.90
6841;DHT22;3458;53.678;14.080;2023-07-20T07:15:22;17.50;99.90
6841;DHT22;3458;53.678;14.080;2023-07-20T07:17:47;17.50;99.90
6841;DHT22;3458;53.678;14.080;2023-07-20T07:20:13;17.60;99.90
6841;DHT22;3458;53.678;14.080;2023-07-20T07:22:38;17.60;99.90
6841;DHT22;3458;53.678;14.080;2023-07-20T07:25:04;17.50;99.90
6841;DHT22;3458;53.678;14.080;2023-07-20T07:27:30;17.50;99.90
6841;DHT22;3458;53.678;14.080;2023-07-20T07:29:55;17.50;99.90
6841;DHT22;3458;53.678;14.080;2023-07-20T07:32:21;17.50;99.90
6841;DHT22;3458;53.678;14.080;2023-07-20T07:34:46;17.50;99.90
6841;DHT22;3458;53.678;14.080;2023-07-20T07:37:13;17.60;99.90
6841;DHT22;3458;53.678;14.080;2023-07-20T07:39:38;17.70;99.90
6841;DHT22;3458;53.678;14.080;2023-07-20T07:42:04;17.80;99.90
6841;DHT22;3458;53.678;14.080;2023-07-20T07:44:30;17.80;99.90
6841;DHT22;3458;53.678;14.080;2023-07-20T07:46:55;17.90;99.90
6841;DHT22;3458;53.678;14.080;2023-07-20T07:49:21;17.90;99.90
6841;DHT22;3458;53.678;14.080;2023-07-20T07:51:46;17.90;99.90
6841;DHT22;3458;53.678;14.080;2023-07-20T07:54:12;18.00;99.90
6841;DHT22;3458;53.678;14.080;2023-07-20T07:56:37;18.10;99.90
6841;DHT22;3458;53.678;14.080;2023-07-20T07:59:03;18.10;99.90
6841;DHT22;3458;53.678;14.080;2023-07-20T08:01:29;18.10;99.90
6841;DHT22;3458;53.678;14.080;2023-07-20T08:03:55;18.20;99.90
6841;DHT22;3458;53.678;14.080;2023-07-20T08:06:21;18.20;99.90
6841;DHT22;3458;53.678;14.080;2023-07-20T08:08:47;18.30;99.90
6841;DHT22;3458;53.678;14.080;2023-07-20T08:11:12;18.20;99.90
6841;DHT22;3458;53.678;14.080;2023-07-20T08:13:38;18.20;99.90
6841;DHT22;3458;53.678;14.080;2023-07-20T08:16:04;18.20;99.90
6841;DHT22;3458;53.678;14.080;2023-07-20T08:18:29;18.10;99.90
6841;DHT22;3458;53.678;14.080;2023-07-20T08:20:55;18.20;99.90
6841;DHT22;3458;53.678;14.080;2023-07-20T08:23:20;18.30;99.90
6841;DHT22;3458;53.678;14.080;2023-07-20T08:25:46;18.40;99.90
6841;DHT22;3458;53.678;14.080;2023-07-20T08:28:14;18.50;99.90
6841;DHT22;3458;53.678;14.080;2023-07-20T08:30:44;18.50;99.90
6841;DHT22;3458;53.678;14.080;2023-07-20T08:33:12;18.50;99.90
6841;DHT22;3458;53.678;14.080;2023-07-20T08:35:37;18.50;99.90
6841;DHT22;3458;53.678;14.080;2023-07-20T08:38:03;18.50;99.90
6841;DHT22;3458;53.678;14.080;2023-07-20T08:40:31;18.60;99.90
6841;DHT22;3458;53.678;14.080;2023-07-20T08:42:58;18.60;99.90
6841;DHT22;3458;53.678;14.080;2023-07-20T08:45:26;18.70;99.90
6841;DHT22;3458;53.678;14.080;2023-07-20T08:47:52;18.70;99.90
6841;DHT22;3458;53.678;14.080;2023-07-20T08:50:19;18.70;99.90
6841;DHT22;3458;53.678;14.080;2023-07-20T08:52:46;18.80;99.90
6841;DHT22;3458;53.678;14.080;2023-07-20T08:55:13;18.80;99.90
6841;DHT22;3458;53.678;14.080;2023-07-20T08:57:39;18.70;99.90
6841;DHT22;3458;53.678;14.080;2023-07-20T09:00:07;18.60;99.90
6841;DHT22;3458;53.678;14.080;2023-07-20T09:02:39;18.50;99.90
6841;DHT22;3458;53.678;14.080;2023-07-20T09:05:08;18.50;99.90
6841;DHT22;3458;53.678;14.080;2023-07-20T09:07:35;18.50;99.90
6841;DHT22;3458;53.678;14.080;2023-07-20T09:10:02;18.50;99.90
6841;DHT22;3458;53.678;14.080;2023-07-20T09:12:33;18.50;99.90
6841;DHT22;3458;53.678;14.080;2023-07-20T09:15:00;18.60;99.90
6841;DHT22;3458;53.678;14.080;2023-07-20T09:17:26;18.60;99.90
6841;DHT22;3458;53.678;14.080;2023-07-20T09:19:52;18.80;99.90
6841;DHT22;3458;53.678;14.080;2023-07-20T09:22:20;18.90;99.90
6841;DHT22;3458;53.678;14.080;2023-07-20T09:24:46;18.90;99.90
6841;DHT22;3458;53.678;14.080;2023-07-20T09:27:12;18.80;99.90
6841;DHT22;3458;53.678;14.080;2023-07-20T09:29:53;18.80;99.90
6841;DHT22;3458;53.678;14.080;2023-07-20T09:32:20;18.70;99.90
6841;DHT22;3458;53.678;14.080;2023-07-20T09:34:46;18.70;99.90
6841;DHT22;3458;53.678;14.080;2023-07-20T09:37:12;18.60;99.90
6841;DHT22;3458;53.678;14.080;2023-07-20T09:39:46;18.60;99.90
6841;DHT22;3458;53.678;14.080;2023-07-20T09:42:12;18.60;99.90
6841;DHT22;3458;53.678;14.080;2023-07-20T09:44:39;18.60;99.90
6841;DHT22;3458;53.678;14.080;2023-07-20T09:47:05;18.70;99.90
6841;DHT22;3458;53.678;14.080;2023-07-20T09:49:31;19.00;99.90
6841;DHT22;3458;53.678;14.080;2023-07-20T09:51:58;19.20;99.90
6841;DHT22;3458;53.678;14.080;2023-07-20T09:54:27;19.30;99.90
6841;DHT22;3458;53.678;14.080;2023-07-20T09:56:52;19.50;99.90
6841;DHT22;3458;53.678;14.080;2023-07-20T09:59:18;19.80;99.90
6841;DHT22;3458;53.678;14.080;2023-07-20T10:01:45;19.80;99.90
6841;DHT22;3458;53.678;14.080;2023-07-20T10:04:11;19.90;99.90
6841;DHT22;3458;53.678;14.080;2023-07-20T10:06:41;20.10;99.90
6841;DHT22;3458;53.678;14.080;2023-07-20T10:09:08;20.10;99.90
6841;DHT22;3458;53.678;14.080;2023-07-20T10:11:36;20.00;99.90
6841;DHT22;3458;53.678;14.080;2023-07-20T10:14:03;19.90;97.60
6841;DHT22;3458;53.678;14.080;2023-07-20T10:16:36;20.00;96.60
6841;DHT22;3458;53.678;14.080;2023-07-20T10:19:32;20.30;96.10
6841;DHT22;3458;53.678;14.080;2023-07-20T10:22:13;20.50;93.60
6841;DHT22;3458;53.678;14.080;2023-07-20T10:24:40;20.70;93.20
6841;DHT22;3458;53.678;14.080;2023-07-20T10:27:06;20.80;91.80
6841;DHT22;3458;53.678;14.080;2023-07-20T10:29:32;20.70;90.50
6841;DHT22;3458;53.678;14.080;2023-07-20T10:31:59;20.70;89.70
6841;DHT22;3458;53.678;14.080;2023-07-20T10:34:25;20.90;90.00
6841;DHT22;3458;53.678;14.080;2023-07-20T10:36:50;21.00;90.90
6841;DHT22;3458;53.678;14.080;2023-07-20T10:39:23;21.10;87.40
6841;DHT22;3458;53.678;14.080;2023-07-20T10:41:50;21.00;88.40
6841;DHT22;3458;53.678;14.080;2023-07-20T10:44:20;21.00;87.00
6841;DHT22;3458;53.678;14.080;2023-07-20T10:46:46;21.20;87.20
6841;DHT22;3458;53.678;14.080;2023-07-20T10:49:13;21.30;83.90
6841;DHT22;3458;53.678;14.080;2023-07-20T10:51:42;21.20;82.90
6841;DHT22;3458;53.678;14.080;2023-07-20T10:56:43;21.10;79.10
6841;DHT22;3458;53.678;14.080;2023-07-20T10:59:19;21.10;80.40
6841;DHT22;3458;53.678;14.080;2023-07-20T11:01:46;21.30;78.10
6841;DHT22;3458;53.678;14.080;2023-07-20T11:04:12;21.30;76.80
6841;DHT22;3458;53.678;14.080;2023-07-20T11:06:43;21.40;79.30
6841;DHT22;3458;53.678;14.080;2023-07-20T11:09:13;21.50;77.70
6841;DHT22;3458;53.678;14.080;2023-07-20T11:11:48;21.70;74.60
6841;DHT22;3458;53.678;14.080;2023-07-20T11:14:21;21.70;74.90
6841;DHT22;3458;53.678;14.080;2023-07-20T11:16:48;21.70;72.80
6841;DHT22;3458;53.678;14.080;2023-07-20T11:19:16;21.80;74.30
6841;DHT22;3458;53.678;14.080;2023-07-20T11:21:43;21.80;73.60
6841;DHT22;3458;53.678;14.080;2023-07-20T11:24:09;21.80;71.20
6841;DHT22;3458;53.678;14.080;2023-07-20T11:26:52;21.80;72.00
6841;DHT22;3458;53.678;14.080;2023-07-20T11:29:21;21.80;69.60
6841;DHT22;3458;53.678;14.080;2023-07-20T11:31:47;21.90;68.40
6841;DHT22;3458;53.678;14.080;2023-07-20T11:34:13;22.10;67.40
6841;DHT22;3458;53.678;14.080;2023-07-20T11:36:43;22.10;66.20
6841;DHT22;3458;53.678;14.080;2023-07-20T11:39:10;22.20;68.30
6841;DHT22;3458;53.678;14.080;2023-07-20T11:41:36;22.30;65.70
6841;DHT22;3458;53.678;14.080;2023-07-20T11:44:02;22.00;66.80
6841;DHT22;3458;53.678;14.080;2023-07-20T11:46:28;21.70;71.20
6841;DHT22;3458;53.678;14.080;2023-07-20T11:48:58;21.70;75.20
6841;DHT22;3458;53.678;14.080;2023-07-20T11:51:28;21.70;75.90
6841;DHT22;3458;53.678;14.080;2023-07-20T11:53:54;21.70;75.50
6841;DHT22;3458;53.678;14.080;2023-07-20T11:56:20;21.70;75.30
6841;DHT22;3458;53.678;14.080;2023-07-20T11:58:46;21.90;74.30
6841;DHT22;3458;53.678;14.080;2023-07-20T12:01:12;21.80;72.10
6841;DHT22;3458;53.678;14.080;2023-07-20T12:03:39;21.70;68.30
6841;DHT22;3458;53.678;14.080;2023-07-20T12:06:08;21.70;66.60
6841;DHT22;3458;53.678;14.080;2023-07-20T12:08:34;21.90;67.00
6841;DHT22;3458;53.678;14.080;2023-07-20T12:11:00;22.10;66.30
6841;DHT22;3458;53.678;14.080;2023-07-20T12:13:44;22.20;63.70
6841;DHT22;3458;53.678;14.080;2023-07-20T12:16:14;22.30;64.10
6841;DHT22;3458;53.678;14.080;2023-07-20T12:18:41;22.40;64.40
6841;DHT22;3458;53.678;14.080;2023-07-20T12:21:07;23.10;60.90
6841;DHT22;3458;53.678;14.080;2023-07-20T12:23:40;24.00;58.80
6841;DHT22;3458;53.678;14.080;2023-07-20T12:26:07;25.50;55.30
6841;DHT22;3458;53.678;14.080;2023-07-20T12:28:39;25.50;53.00
6841;DHT22;3458;53.678;14.080;2023-07-20T12:31:06;25.90;52.10
6841;DHT22;3458;53.678;14.080;2023-07-20T12:33:31;26.60;50.10
6841;DHT22;3458;53.678;14.080;2023-07-20T12:35:57;27.20;51.40
6841;DHT22;3458;53.678;14.080;2023-07-20T12:38:24;27.30;43.90
6841;DHT22;3458;53.678;14.080;2023-07-20T12:40:50;27.40;39.60
6841;DHT22;3458;53.678;14.080;2023-07-20T12:43:16;27.30;39.10
6841;DHT22;3458;53.678;14.080;2023-07-20T12:45:42;26.50;38.50
6841;DHT22;3458;53.678;14.080;2023-07-20T12:48:07;25.40;39.00
6841;DHT22;3458;53.678;14.080;2023-07-20T12:50:33;24.60;40.10
6841;DHT22;3458;53.678;14.080;2023-07-20T12:52:58;24.40;41.90
6841;DHT22;3458;53.678;14.080;2023-07-20T12:55:24;25.10;40.80
6841;DHT22;3458;53.678;14.080;2023-07-20T12:57:49;25.90;38.70
6841;DHT22;3458;53.678;14.080;2023-07-20T13:00:15;26.00;39.50
6841;DHT22;3458;53.678;14.080;2023-07-20T13:02:41;26.60;38.00
6841;DHT22;3458;53.678;14.080;2023-07-20T13:05:09;26.90;37.90
6841;DHT22;3458;53.678;14.080;2023-07-20T13:07:36;27.20;36.90
6841;DHT22;3458;53.678;14.080;2023-07-20T13:10:03;27.40;36.30
6841;DHT22;3458;53.678;14.080;2023-07-20T13:12:31;27.60;35.50
6841;DHT22;3458;53.678;14.080;2023-07-20T13:14:57;27.20;35.30
6841;DHT22;3458;53.678;14.080;2023-07-20T13:17:26;26.30;35.60
6841;DHT22;3458;53.678;14.080;2023-07-20T13:19:52;25.30;37.50
6841;DHT22;3458;53.678;14.080;2023-07-20T13:22:17;24.50;39.80
6841;DHT22;3458;53.678;14.080;2023-07-20T13:24:45;24.10;40.30
6841;DHT22;3458;53.678;14.080;2023-07-20T13:27:14;23.70;41.70
6841;DHT22;3458;53.678;14.080;2023-07-20T13:29:40;23.50;41.70
6841;DHT22;3458;53.678;14.080;2023-07-20T13:32:07;23.30;42.80
6841;DHT22;3458;53.678;14.080;2023-07-20T13:34:32;23.30;44.40
6841;DHT22;3458;53.678;14.080;2023-07-20T13:36:58;23.40;44.50
6841;DHT22;3458;53.678;14.080;2023-07-20T13:39:24;23.80;44.90
6841;DHT22;3458;53.678;14.080;2023-07-20T13:41:52;24.70;43.00
6841;DHT22;3458;53.678;14.080;2023-07-20T13:44:17;25.10;41.70
6841;DHT22;3458;53.678;14.080;2023-07-20T13:46:43;25.30;41.30
6841;DHT22;3458;53.678;14.080;2023-07-20T13:49:08;26.00;41.50
6841;DHT22;3458;53.678;14.080;2023-07-20T13:51:34;26.70;40.80
6841;DHT22;3458;53.678;14.080;2023-07-20T13:54:00;26.90;39.80
6841;DHT22;3458;53.678;14.080;2023-07-20T13:56:26;26.50;39.80
6841;DHT22;3458;53.678;14.080;2023-07-20T13:58:52;26.20;41.10
6841;DHT22;3458;53.678;14.080;2023-07-20T14:01:18;25.60;40.90
6841;DHT22;3458;53.678;14.080;2023-07-20T14:03:44;25.00;42.10
6841;DHT22;3458;53.678;14.080;2023-07-20T14:06:09;24.60;43.00
6841;DHT22;3458;53.678;14.080;2023-07-20T14:08:36;24.30;43.00
6841;DHT22;3458;53.678;14.080;2023-07-20T14:11:02;24.10;43.30
6841;DHT22;3458;53.678;14.080;2023-07-20T14:13:27;24.30;45.30
6841;DHT22;3458;53.678;14.080;2023-07-20T14:15:53;25.50;44.20
6841;DHT22;3458;53.678;14.080;2023-07-20T14:18:18;26.20;41.80
6841;DHT22;3458;53.678;14.080;2023-07-20T14:20:44;25.80;40.50
6841;DHT22;3458;53.678;14.080;2023-07-20T14:23:09;25.10;41.10
6841;DHT22;3458;53.678;14.080;2023-07-20T14:25:35;24.40;42.00
6841;DHT22;3458;53.678;14.080;2023-07-20T14:28:01;23.70;44.60
6841;DHT22;3458;53.678;14.080;2023-07-20T14:30:26;23.00;47.00
6841;DHT22;3458;53.678;14.080;2023-07-20T14:32:52;22.50;48.30
6841;DHT22;3458;53.678;14.080;2023-07-20T14:35:18;22.20;49.40
6841;DHT22;3458;53.678;14.080;2023-07-20T14:37:44;22.10;51.00
6841;DHT22;3458;53.678;14.080;2023-07-20T14:40:12;22.10;51.70
6841;DHT22;3458;53.678;14.080;2023-07-20T14:42:38;22.00;52.40
6841;DHT22;3458;53.678;14.080;2023-07-20T14:45:04;22.00;52.40
6841;DHT22;3458;53.678;14.080;2023-07-20T14:47:31;21.90;52.50
6841;DHT22;3458;53.678;14.080;2023-07-20T14:50:00;21.80;52.20
6841;DHT22;3458;53.678;14.080;2023-07-20T14:52:27;21.60;52.00
6841;DHT22;3458;53.678;14.080;2023-07-20T14:54:53;21.60;52.40
6841;DHT22;3458;53.678;14.080;2023-07-20T14:57:19;21.70;52.20
6841;DHT22;3458;53.678;14.080;2023-07-20T14:59:45;21.90;52.10
6841;DHT22;3458;53.678;14.080;2023-07-20T15:02:11;22.90;51.40
6841;DHT22;3458;53.678;14.080;2023-07-20T15:04:45;23.30;50.40
6841;DHT22;3458;53.678;14.080;2023-07-20T15:07:10;23.70;49.80
6841;DHT22;3458;53.678;14.080;2023-07-20T15:09:36;24.10;49.20
6841;DHT22;3458;53.678;14.080;2023-07-20T15:12:01;24.10;48.00
6841;DHT22;3458;53.678;14.080;2023-07-20T15:14:27;24.30;48.30
6841;DHT22;3458;53.678;14.080;2023-07-20T15:16:52;25.20;47.20
6841;DHT22;3458;53.678;14.080;2023-07-20T15:19:18;24.80;45.90
6841;DHT22;3458;53.678;14.080;2023-07-20T15:21:43;24.10;46.30
6841;DHT22;3458;53.678;14.080;2023-07-20T15:24:09;23.50;47.20
6841;DHT22;3458;53.678;14.080;2023-07-20T15:26:35;23.10;47.10
6841;DHT22;3458;53.678;14.080;2023-07-20T15:29:00;22.60;48.00
6841;DHT22;3458;53.678;14.080;2023-07-20T15:31:26;22.30;49.30
6841;DHT22;3458;53.678;14.080;2023-07-20T15:33:53;22.10;50.10
6841;DHT22;3458;53.678;14.080;2023-07-20T15:36:18;21.90;50.20
6841;DHT22;3458;53.678;14.080;2023-07-20T15:38:44;21.90;50.90
6841;DHT22;3458;53.678;14.080;2023-07-20T15:41:09;22.30;51.50
6841;DHT22;3458;53.678;14.080;2023-07-20T15:43:35;24.00;49.90
6841;DHT22;3458;53.678;14.080;2023-07-20T15:48:46;27.30;43.00
6841;DHT22;3458;53.678;14.080;2023-07-20T15:51:12;28.10;40.70